Time;durP1;ratioP1;P1;durP2;ratioP2;P2;SDS_P1;SDS_P2;PMS_P1;PMS_P2;Temp;Humidity;BMP_temperature;BMP_pressure;BME280_temperature;BME280_humidity;BME280_pressure;Samples;Min_cycle;Max_cycle;Signal;HPM_P1;HPM_P2
2021/06/03 04:10:48;;;;;;;0.30;0.30;;;17.20;96.80;;;;;;5780061;23;20295;-82
2021/06/03 04:13:16;;;;;;;0.30;0.30;;;17.20;96.60;;;;;;4968394;29;20198;-83
2021/06/03 04:15:43;;;;;;;0.30;0.30;;;17.30;98.60;;;;;;4968610;29;20201;-81
2021/06/03 04:18:11;;;;;;;0.30;0.30;;;17.40;96.30;;;;;;4971603;29;20198;-82
2021/06/03 04:20:39;;;;;;;0.30;0.30;;;17.40;96.90;;;;;;4969502;29;20608;-81
2021/06/03 04:23:06;;;;;;;0.30;0.30;;;17.60;97.00;;;;;;4969930;29;20217;-82
2021/06/03 04:25:34;;;;;;;0.40;0.40;;;17.60;97.30;;;;;;4966369;29;20206;-82
2021/06/03 04:28:05;;;;;;;0.30;0.30;;;17.60;97.20;;;;;;4965268;29;20205;-79
2021/06/03 04:30:34;;;;;;;0.30;0.30;;;17.60;97.20;;;;;;4969110;29;20236;-80
2021/06/03 04:33:02;;;;;;;0.30;0.30;;;17.70;96.70;;;;;;4970776;28;20205;-81
2021/06/03 04:35:29;;;;;;;0.30;0.30;;;17.70;96.50;;;;;;4969998;29;20232;-79
2021/06/03 04:37:57;;;;;;;0.30;0.30;;;19.50;96.20;;;;;;4963243;29;20232;-79
2021/06/03 04:40:25;;;;;;;0.30;0.30;;;17.60;99.90;;;;;;4962527;29;20202;-79
2021/06/03 04:42:53;;;;;;;0.40;0.40;;;17.70;96.10;;;;;;4964137;29;20213;-81
2021/06/03 04:45:22;;;;;;;0.30;0.30;;;17.70;96.50;;;;;;4963060;29;20209;-81
2021/06/03 04:47:50;;;;;;;0.30;0.30;;;17.80;94.80;;;;;;4965413;29;20217;-80
2021/06/03 04:50:20;;;;;;;0.40;0.40;;;18.10;99.90;;;;;;4960868;29;20308;-80
2021/06/03 04:52:48;;;;;;;0.30;0.30;;;17.90;96.80;;;;;;4960100;29;20260;-79
2021/06/03 04:55:17;;;;;;;0.35;0.35;;;17.90;94.60;;;;;;4966313;29;20573;-82
2021/06/03 04:57:45;;;;;;;0.30;0.30;;;18.00;96.70;;;;;;4964010;29;20201;-80
2021/06/03 05:00:16;;;;;;;0.30;0.30;;;18.10;99.90;;;;;;4958558;29;20201;-77
2021/06/03 05:02:45;;;;;;;0.30;0.30;;;18.00;94.70;;;;;;4946979;29;20206;-78
2021/06/03 05:05:14;;;;;;;0.30;0.30;;;18.00;94.60;;;;;;4950962;29;20209;-78
2021/06/03 05:07:42;;;;;;;0.30;0.30;;;18.20;96.70;;;;;;4958726;28;20659;-77
2021/06/03 05:10:11;;;;;;;0.30;0.30;;;18.30;95.00;;;;;;4959988;29;20639;-79
2021/06/03 05:12:38;;;;;;;0.20;0.20;;;18.20;95.00;;;;;;4962183;29;20273;-78
2021/06/03 05:15:07;;;;;;;0.20;0.20;;;18.30;95.50;;;;;;4962185;29;20256;-77
2021/06/03 05:17:35;;;;;;;0.30;0.30;;;18.40;97.00;;;;;;4960523;29;20215;-79
2021/06/03 05:20:06;;;;;;;0.40;0.40;;;18.40;96.20;;;;;;4958447;29;20807;-77
2021/06/03 05:22:35;;;;;;;0.30;0.30;;;18.50;94.20;;;;;;4960251;29;20600;-77
2021/06/03 05:25:03;;;;;;;0.30;0.30;;;18.50;94.20;;;;;;4960974;29;20282;-78
2021/06/03 05:27:31;;;;;;;0.30;0.30;;;18.60;95.30;;;;;;4961005;29;20201;-78
2021/06/03 05:29:58;;;;;;;0.20;0.20;;;18.50;93.80;;;;;;4961583;29;20225;-76
2021/06/03 05:32:25;;;;;;;0.25;0.25;;;18.50;94.90;;;;;;4960194;29;20225;-79
2021/06/03 05:34:53;;;;;;;0.20;0.20;;;18.60;93.40;;;;;;4961208;29;20256;-77
2021/06/03 05:37:22;;;;;;;0.20;0.20;;;18.50;93.70;;;;;;4960944;29;20650;-77
2021/06/03 05:39:49;;;;;;;0.30;0.30;;;18.60;94.80;;;;;;4961639;29;20202;-78
2021/06/03 05:42:18;;;;;;;0.20;0.20;;;18.70;94.30;;;;;;4961390;29;20258;-79
2021/06/03 05:44:45;;;;;;;0.20;0.20;;;18.80;96.00;;;;;;4958966;28;20881;-80
2021/06/03 05:47:13;;;;;;;0.20;0.20;;;18.80;92.40;;;;;;4959941;29;20611;-79
2021/06/03 05:49:41;;;;;;;0.30;0.30;;;18.80;94.90;;;;;;4962136;29;20198;-81
2021/06/03 05:52:08;;;;;;;0.20;0.20;;;18.90;94.40;;;;;;4962548;29;20225;-80
2021/06/03 05:54:37;;;;;;;0.20;0.20;;;18.90;92.10;;;;;;4961359;29;20229;-79
2021/06/03 05:57:05;;;;;;;0.30;0.30;;;19.00;93.90;;;;;;4962024;29;20662;-79
2021/06/03 05:59:33;;;;;;;0.30;0.30;;;19.10;94.50;;;;;;4962205;29;20221;-81
2021/06/03 06:02:04;;;;;;;0.20;0.20;;;19.20;94.50;;;;;;4960657;29;20218;-79
2021/06/03 06:07:17;;;;;;;0.20;0.20;;;19.10;93.70;;;;;;4962104;29;20209;-79
2021/06/03 06:09:46;;;;;;;0.20;0.20;;;19.40;97.20;;;;;;4967097;29;20201;-81
2021/06/03 06:12:14;;;;;;;0.20;0.20;;;19.40;95.10;;;;;;4968651;29;20295;-81
2021/06/03 06:14:41;;;;;;;0.20;0.20;;;19.60;93.60;;;;;;4970932;29;20208;-80
2021/06/03 06:17:10;;;;;;;0.30;0.30;;;19.50;94.40;;;;;;4966892;29;20217;-81
2021/06/03 06:19:38;;;;;;;0.30;0.30;;;19.50;95.10;;;;;;4965517;29;20221;-81
2021/06/03 06:22:05;;;;;;;0.20;0.20;;;19.60;95.90;;;;;;4965866;29;20225;-81
2021/06/03 06:24:32;;;;;;;0.20;0.20;;;19.80;93.10;;;;;;4963434;29;20296;-78
2021/06/03 06:27:01;;;;;;;0.20;0.20;;;19.80;95.10;;;;;;4953786;29;20209;-76
2021/06/03 06:29:28;;;;;;;0.30;0.30;;;19.90;95.20;;;;;;4953905;29;20325;-74
2021/06/03 06:31:56;;;;;;;0.20;0.20;;;20.00;93.70;;;;;;4953759;29;20701;-74
2021/06/03 06:34:23;;;;;;;0.20;0.20;;;19.90;92.00;;;;;;4953890;29;20209;-74
2021/06/03 06:36:51;;;;;;;0.20;0.20;;;20.00;92.00;;;;;;4956665;29;20209;-75
2021/06/03 06:39:18;;;;;;;0.20;0.20;;;20.00;92.00;;;;;;4955974;29;20216;-74
2021/06/03 06:41:46;;;;;;;0.30;0.30;;;20.20;92.50;;;;;;4953696;29;20276;-74
2021/06/03 06:44:15;;;;;;;0.20;0.20;;;20.10;91.80;;;;;;4953761;29;20746;-74
2021/06/03 06:46:42;;;;;;;0.20;0.20;;;20.20;91.70;;;;;;4953683;29;20252;-74
2021/06/03 06:49:10;;;;;;;0.25;0.25;;;20.30;93.80;;;;;;4953954;29;20209;-74
2021/06/03 06:51:38;;;;;;;0.30;0.30;;;20.30;93.10;;;;;;4953561;29;20284;-74
2021/06/03 06:54:05;;;;;;;0.30;0.30;;;20.30;90.80;;;;;;4953201;29;20232;-75
2021/06/03 06:56:33;;;;;;;0.20;0.20;;;20.40;91.60;;;;;;4956409;28;20201;-75
2021/06/03 06:59:00;;;;;;;0.20;0.20;;;20.50;92.00;;;;;;4957329;29;20256;-75
2021/06/03 07:01:29;;;;;;;0.20;0.20;;;20.60;91.50;;;;;;4957610;29;20218;-74
2021/06/03 07:03:57;;;;;;;0.20;0.20;;;20.60;91.30;;;;;;4941399;29;20261;-75
2021/06/03 07:06:24;;;;;;;0.20;0.20;;;20.70;91.70;;;;;;4938146;29;20206;-75
2021/06/03 07:08:52;;;;;;;0.30;0.30;;;20.70;91.50;;;;;;4911165;29;20799;-75
2021/06/03 07:11:19;;;;;;;0.20;0.20;;;20.80;91.50;;;;;;4913889;29;21149;-75
2021/06/03 07:13:46;;;;;;;0.20;0.20;;;20.90;93.00;;;;;;4937371;29;20253;-75
2021/06/03 07:16:14;;;;;;;0.20;0.20;;;21.00;92.10;;;;;;4957032;29;20252;-76
2021/06/03 07:18:42;;;;;;;0.20;0.20;;;21.00;91.90;;;;;;4957489;29;20205;-74
2021/06/03 07:21:10;;;;;;;0.20;0.20;;;21.10;90.80;;;;;;4957250;29;20288;-74
2021/06/03 07:23:37;;;;;;;0.20;0.20;;;21.10;90.50;;;;;;4961762;29;20213;-81
2021/06/03 07:26:04;;;;;;;0.20;0.20;;;21.10;90.40;;;;;;4966729;29;20241;-78
2021/06/03 07:28:32;;;;;;;0.20;0.20;;;21.20;91.80;;;;;;4960623;29;20272;-79
2021/06/03 07:31:00;;;;;;;0.20;0.20;;;21.30;92.80;;;;;;4958943;29;20229;-80
2021/06/03 07:33:28;;;;;;;0.20;0.20;;;21.40;93.00;;;;;;4960969;29;20706;-81
2021/06/03 07:35:56;;;;;;;0.20;0.20;;;21.50;92.10;;;;;;4961990;29;20209;-83
2021/06/03 07:38:24;;;;;;;0.20;0.20;;;21.60;90.90;;;;;;4960099;29;20208;-80
2021/06/03 07:40:51;;;;;;;0.20;0.20;;;21.80;90.50;;;;;;4960677;29;20218;-80
2021/06/03 07:43:19;;;;;;;0.20;0.20;;;21.60;89.80;;;;;;4964690;29;20689;-81
2021/06/03 07:45:46;;;;;;;0.20;0.20;;;21.70;89.10;;;;;;4963117;29;20212;-80
2021/06/03 07:48:14;;;;;;;0.20;0.20;;;21.80;90.10;;;;;;4966370;29;20219;-79
2021/06/03 07:50:41;;;;;;;0.20;0.20;;;21.80;91.40;;;;;;4964475;29;20253;-80
2021/06/03 07:53:10;;;;;;;0.20;0.20;;;21.90;90.60;;;;;;4963464;29;20621;-80
2021/06/03 07:55:38;;;;;;;0.20;0.20;;;22.10;90.10;;;;;;4963973;29;20256;-80
2021/06/03 07:58:08;;;;;;;0.20;0.20;;;22.10;90.40;;;;;;4966408;29;20201;-78
2021/06/03 08:00:36;;;;;;;0.20;0.20;;;22.20;89.30;;;;;;4960437;29;20226;-77
2021/06/03 08:03:05;;;;;;;0.20;0.20;;;22.20;89.70;;;;;;4965362;28;20225;-80
2021/06/03 08:05:32;;;;;;;0.20;0.20;;;22.30;89.10;;;;;;4982725;28;20232;-80
2021/06/03 08:08:00;;;;;;;0.20;0.20;;;22.40;87.40;;;;;;4979692;28;20208;-79
2021/06/03 08:10:31;;;;;;;0.20;0.20;;;22.50;94.20;;;;;;4982382;28;20236;-80
2021/06/03 08:13:00;;;;;;;0.20;0.20;;;22.50;87.70;;;;;;4986469;28;20616;-80
2021/06/03 08:15:29;;;;;;;0.20;0.20;;;22.60;92.00;;;;;;4986770;28;20216;-79
2021/06/03 08:17:57;;;;;;;0.20;0.20;;;22.60;90.20;;;;;;4988251;28;20205;-79
2021/06/03 08:20:29;;;;;;;0.20;0.20;;;22.80;93.90;;;;;;4987391;28;20205;-78
2021/06/03 08:22:57;;;;;;;0.20;0.20;;;22.80;86.70;;;;;;4951761;29;20206;-79
2021/06/03 08:25:25;;;;;;;0.20;0.20;;;22.80;87.10;;;;;;4951739;29;20238;-78
2021/06/03 08:27:54;;;;;;;0.20;0.20;;;22.90;89.40;;;;;;4950735;29;20202;-80
2021/06/03 08:30:22;;;;;;;0.20;0.20;;;23.00;93.90;;;;;;4950195;29;20649;-80
2021/06/03 08:32:51;;;;;;;0.20;0.20;;;23.00;86.60;;;;;;4952594;29;20222;-79
2021/06/03 08:35:22;;;;;;;0.20;0.20;;;23.00;87.60;;;;;;4951728;29;20210;-81
2021/06/03 08:37:51;;;;;;;0.20;0.20;;;23.00;84.90;;;;;;4953472;29;20237;-79
2021/06/03 08:40:21;;;;;;;0.20;0.20;;;23.10;93.50;;;;;;4953451;29;20210;-79
2021/06/03 08:42:51;;;;;;;0.20;0.20;;;23.10;86.50;;;;;;4954753;29;20197;-79
2021/06/03 08:45:21;;;;;;;0.20;0.20;;;23.10;84.70;;;;;;4948420;29;20706;-80
2021/06/03 08:47:48;;;;;;;0.10;0.10;;;23.20;86.40;;;;;;4950221;29;20210;-79
2021/06/03 08:50:17;;;;;;;0.20;0.20;;;23.20;90.80;;;;;;4949819;29;20217;-81
2021/06/03 08:52:44;;;;;;;0.20;0.20;;;23.20;79.70;;;;;;4948994;29;20257;-79
2021/06/03 08:56:14;;;;;;;0.10;0.10;;;23.30;82.30;;;;;;4960116;29;20209;-79
2021/06/03 08:58:04;;;;;;;0.20;0.20;;;23.40;79.00;;;;;;4968177;28;20219;-78
2021/06/03 09:00:34;;;;;;;0.20;0.20;;;23.40;79.10;;;;;;4967953;29;20229;-80
2021/06/03 09:03:01;;;;;;;0.20;0.20;;;23.50;83.70;;;;;;4966019;29;20201;-80
2021/06/03 09:05:29;;;;;;;0.20;0.20;;;23.50;78.70;;;;;;4965053;29;20208;-80
2021/06/03 09:07:57;;;;;;;0.20;0.20;;;;;;;;;;4967963;29;20201;-81
2021/06/03 09:10:28;;;;;;;0.20;0.20;;;23.60;88.80;;;;;;4966116;29;20225;-79
2021/06/03 09:13:10;;;;;;;0.22;0.22;;;23.60;80.30;;;;;;4966488;29;20205;-79
2021/06/03 09:15:40;;;;;;;0.20;0.20;;;23.60;77.00;;;;;;4968076;29;20197;-80
2021/06/03 09:18:09;;;;;;;0.20;0.20;;;23.70;80.00;;;;;;4967680;28;20233;-80
2021/06/03 09:20:39;;;;;;;0.20;0.20;;;23.70;75.90;;;;;;4965423;29;20213;-80
2021/06/03 09:23:06;;;;;;;0.10;0.10;;;23.80;72.60;;;;;;4970937;29;20205;-81
2021/06/03 09:25:37;;;;;;;0.10;0.10;;;23.80;73.30;;;;;;4969660;28;20205;-81
2021/06/03 09:28:24;;;;;;;0.20;0.20;;;23.80;73.30;;;;;;4970353;29;20236;-81
2021/06/03 09:31:01;;;;;;;0.10;0.10;;;23.80;75.40;;;;;;4968678;29;20535;-79
2021/06/03 09:33:41;;;;;;;0.10;0.10;;;23.90;73.30;;;;;;4967939;29;20573;-80
2021/06/03 09:36:10;;;;;;;0.15;0.15;;;24.00;81.00;;;;;;4966449;29;20626;-78
2021/06/03 09:38:51;;;;;;;0.10;0.10;;;24.00;74.00;;;;;;4966278;29;20205;-81
2021/06/03 09:41:19;;;;;;;0.20;0.20;;;24.00;72.00;;;;;;4965089;29;20263;-79
2021/06/03 09:43:47;;;;;;;0.20;0.20;;;24.10;72.30;;;;;;4968192;29;20269;-79
2021/06/03 09:46:17;;;;;;;0.20;0.20;;;24.20;71.30;;;;;;4952470;29;20202;-78
2021/06/03 09:48:48;;;;;;;0.10;0.10;;;24.20;72.90;;;;;;4942673;29;20210;-78
2021/06/03 09:51:18;;;;;;;0.20;0.20;;;24.20;71.70;;;;;;4947226;29;20229;-79
2021/06/03 09:53:58;;;;;;;0.20;0.20;;;24.30;72.10;;;;;;4964255;29;20202;-80
2021/06/03 09:56:28;;;;;;;0.10;0.10;;;24.30;73.70;;;;;;4967874;29;20204;-81
2021/06/03 09:58:57;;;;;;;0.10;0.10;;;24.40;74.40;;;;;;4969378;29;20228;-80
2021/06/03 10:01:57;;;;;;;0.20;0.20;;;24.40;73.30;;;;;;4969483;29;20304;-80
2021/06/03 10:04:29;;;;;;;0.10;0.10;;;24.40;72.40;;;;;;4967681;29;20213;-80
2021/06/03 10:07:15;;;;;;;0.10;0.10;;;24.50;68.20;;;;;;4969005;29;20209;-80
2021/06/03 10:10:03;;;;;;;0.20;0.20;;;24.60;67.70;;;;;;4967884;29;20268;-82
2021/06/03 10:12:37;;;;;;;0.10;0.10;;;24.70;69.10;;;;;;4967035;29;20225;-82
2021/06/03 10:15:11;;;;;;;0.10;0.10;;;24.70;69.50;;;;;;4958541;29;20213;-81
2021/06/03 10:17:48;;;;;;;0.10;0.10;;;24.70;66.10;;;;;;4960011;29;20256;-81
2021/06/03 10:20:19;;;;;;;0.13;0.13;;;24.60;82.70;;;;;;4955574;29;20205;-80
2021/06/03 10:22:48;;;;;;;0.10;0.10;;;24.70;68.60;;;;;;4958663;29;20201;-80
2021/06/03 10:25:17;;;;;;;0.20;0.20;;;24.70;67.30;;;;;;4963132;29;20205;-79
2021/06/03 10:27:46;;;;;;;0.10;0.10;;;24.70;67.10;;;;;;4962359;29;20213;-77
2021/06/03 10:30:16;;;;;;;0.10;0.10;;;25.00;83.60;;;;;;4966117;28;20231;-78
2021/06/03 10:32:48;;;;;;;0.10;0.10;;;24.70;70.40;;;;;;4961174;29;20225;-77
2021/06/03 10:35:19;;;;;;;0.10;0.10;;;24.80;69.60;;;;;;4963019;29;20197;-80
2021/06/03 10:37:47;;;;;;;0.20;0.20;;;24.80;67.00;;;;;;4965134;29;20739;-79
2021/06/03 10:40:21;;;;;;;0.10;0.10;;;24.90;78.40;;;;;;4966151;29;20272;-79
2021/06/03 10:42:50;;;;;;;0.10;0.10;;;24.80;64.10;;;;;;4966506;29;20288;-79
2021/06/03 10:45:19;;;;;;;0.10;0.10;;;24.90;67.30;;;;;;4965850;29;20268;-81
2021/06/03 10:47:49;;;;;;;0.10;0.10;;;25.00;66.50;;;;;;4966729;29;20205;-82
2021/06/03 10:50:20;;;;;;;0.10;0.10;;;25.10;83.50;;;;;;4967570;29;20205;-79
2021/06/03 10:52:50;;;;;;;0.10;0.10;;;25.00;65.90;;;;;;4968083;29;20206;-81
2021/06/03 10:55:26;;;;;;;0.10;0.10;;;25.10;65.30;;;;;;4968009;29;20233;-83
2021/06/03 10:57:55;;;;;;;0.10;0.10;;;25.10;65.90;;;;;;4970394;29;20224;-80
2021/06/03 11:00:29;;;;;;;0.20;0.20;;;25.10;85.40;;;;;;4967284;29;20215;-80
2021/06/03 11:02:59;;;;;;;0.10;0.10;;;25.10;65.50;;;;;;4966283;29;20206;-81
2021/06/03 11:05:29;;;;;;;0.10;0.10;;;25.20;64.80;;;;;;4965566;29;20232;-82
2021/06/03 11:08:17;;;;;;;0.20;0.20;;;25.20;65.80;;;;;;4966566;29;20209;-81
2021/06/03 11:10:44;;;;;;;0.10;0.10;;;25.30;64.80;;;;;;4970253;28;20228;-82
2021/06/03 11:13:14;;;;;;;0.20;0.20;;;25.40;65.60;;;;;;4967830;29;20253;-78
2021/06/03 11:16:04;;;;;;;0.10;0.10;;;25.40;63.60;;;;;;4966092;29;20213;-81
2021/06/03 11:19:08;;;;;;;0.20;0.20;;;25.50;64.20;;;;;;4937882;29;20275;-77
2021/06/03 11:22:04;;;;;;;0.10;0.10;;;25.50;66.70;;;;;;4897192;29;20254;-78
2021/06/03 11:24:48;;;;;;;0.20;0.20;;;25.60;71.50;;;;;;4933559;29;20257;-77
2021/06/03 11:27:33;;;;;;;0.10;0.10;;;25.50;64.50;;;;;;4934015;29;20213;-77
2021/06/03 11:30:03;;;;;;;0.20;0.20;;;25.60;65.70;;;;;;4934830;29;20600;-77
2021/06/03 11:32:34;;;;;;;0.10;0.10;;;25.70;65.60;;;;;;4934469;29;20226;-77
2021/06/03 11:35:05;;;;;;;0.10;0.10;;;25.60;63.20;;;;;;4934426;29;20214;-77
2021/06/03 11:37:49;;;;;;;0.10;0.10;;;25.80;63.80;;;;;;4934440;29;20695;-77
2021/06/03 11:40:20;;;;;;;0.10;0.10;;;25.90;81.20;;;;;;4935103;29;20246;-77
2021/06/03 11:42:48;;;;;;;0.20;0.20;;;25.90;62.60;;;;;;4937487;29;20202;-77
2021/06/03 11:45:27;;;;;;;0.10;0.10;;;26.00;68.00;;;;;;4938341;29;20201;-77
2021/06/03 11:48:01;;;;;;;0.20;0.20;;;25.80;64.80;;;;;;4942520;29;20190;-82
2021/06/03 11:50:43;;;;;;;0.13;0.13;;;26.20;74.70;;;;;;4941229;29;20273;-80
2021/06/03 11:53:15;;;;;;;0.10;0.10;;;26.20;63.00;;;;;;4939959;29;20569;-81
2021/06/03 11:55:44;;;;;;;0.20;0.20;;;26.30;66.90;;;;;;4942923;29;20264;-80
2021/06/03 11:58:28;;;;;;;0.20;0.20;;;26.40;61.10;;;;;;4958600;28;20205;-80
2021/06/03 12:00:58;;;;;;;0.20;0.20;;;26.70;61.70;;;;;;4958841;29;20225;-81
2021/06/03 12:03:36;;;;;;;0.20;0.20;;;26.90;67.80;;;;;;4958735;29;20193;-81
2021/06/03 12:06:08;;;;;;;0.20;0.20;;;27.00;70.60;;;;;;4958274;29;20194;-78
2021/06/03 12:08:41;;;;;;;0.15;0.15;;;27.20;62.60;;;;;;4958782;29;20244;-79
2021/06/03 12:11:12;;;;;;;0.20;0.20;;;27.40;59.90;;;;;;4957120;29;20633;-79
2021/06/03 12:13:41;;;;;;;0.20;0.20;;;27.60;63.70;;;;;;4972502;28;20212;-78
2021/06/03 12:16:08;;;;;;;0.10;0.10;;;27.70;68.80;;;;;;4973390;28;20263;-78
2021/06/03 12:18:38;;;;;;;0.17;0.17;;;28.00;62.70;;;;;;4982337;28;20218;-81
2021/06/03 12:21:08;;;;;;;0.10;0.10;;;28.00;60.80;;;;;;4981059;28;20232;-83
2021/06/03 12:23:47;;;;;;;0.10;0.10;;;28.00;61.60;;;;;;4980826;28;20197;-82
2021/06/03 12:26:19;;;;;;;0.10;0.10;;;28.10;62.90;;;;;;4980649;28;20219;-82
2021/06/03 12:28:51;;;;;;;0.10;0.10;;;28.10;58.50;;;;;;4956842;28;20214;-80
2021/06/03 12:31:25;;;;;;;0.10;0.10;;;28.20;63.80;;;;;;4943101;29;20229;-79
2021/06/03 12:33:53;;;;;;;0.10;0.10;;;;;;;;;;4939263;29;20233;-67
2021/06/03 12:36:22;;;;;;;0.10;0.10;;;28.20;59.10;;;;;;4937454;29;20206;-66
2021/06/03 12:38:53;;;;;;;0.10;0.10;;;28.20;63.00;;;;;;4936811;29;20210;-65
2021/06/03 12:41:27;;;;;;;0.10;0.10;;;28.30;58.20;;;;;;4935705;29;20226;-64
2021/06/03 12:43:59;;;;;;;0.10;0.10;;;28.50;63.80;;;;;;4936157;29;20206;-63
2021/06/03 12:46:32;;;;;;;0.10;0.10;;;28.80;64.70;;;;;;4936058;29;20216;-68
2021/06/03 12:49:02;;;;;;;0.10;0.10;;;29.00;65.00;;;;;;4937341;29;20202;-64
2021/06/03 12:51:29;;;;;;;0.10;0.10;;;29.10;63.40;;;;;;4937037;29;20707;-66
2021/06/03 12:53:58;;;;;;;0.10;0.10;;;29.10;56.10;;;;;;4936392;28;20757;-67
2021/06/03 12:56:27;;;;;;;0.10;0.10;;;29.00;57.90;;;;;;4938862;29;20233;-63
2021/06/03 12:58:55;;;;;;;0.10;0.10;;;29.10;60.60;;;;;;4936293;29;20622;-64
2021/06/03 13:01:22;;;;;;;0.10;0.10;;;29.20;64.40;;;;;;4954116;29;20221;-63
2021/06/03 13:03:55;;;;;;;0.10;0.10;;;29.40;63.40;;;;;;4955352;29;20209;-63
2021/06/03 13:06:24;;;;;;;0.10;0.10;;;29.50;59.70;;;;;;4955428;29;20217;-77
2021/06/03 13:08:56;;;;;;;0.10;0.10;;;29.50;56.30;;;;;;4956274;29;20205;-75
2021/06/03 13:11:27;;;;;;;0.10;0.10;;;29.40;57.10;;;;;;4956474;29;20237;-78
2021/06/03 13:13:56;;;;;;;0.10;0.10;;;29.40;60.40;;;;;;4957508;29;20225;-79
2021/06/03 13:16:25;;;;;;;0.10;0.10;;;29.50;59.50;;;;;;4959646;29;20296;-77
2021/06/03 13:18:53;;;;;;;0.10;0.10;;;29.30;55.90;;;;;;4958284;29;20205;-75
2021/06/03 13:21:22;;;;;;;0.10;0.10;;;29.60;55.30;;;;;;4955561;29;20769;-73
2021/06/03 13:23:49;;;;;;;0.10;0.10;;;29.80;58.50;;;;;;4956745;29;20249;-75
2021/06/03 13:26:18;;;;;;;0.10;0.10;;;30.20;55.40;;;;;;4955648;29;20259;-74
2021/06/03 13:28:47;;;;;;;0.10;0.10;;;30.60;57.70;;;;;;4954984;29;20285;-74
2021/06/03 13:31:19;;;;;;;0.10;0.10;;;31.10;57.40;;;;;;4954996;29;20362;-74
2021/06/03 13:33:47;;;;;;;0.10;0.10;;;31.40;56.80;;;;;;4955426;29;20221;-74
2021/06/03 13:36:14;;;;;;;0.10;0.10;;;31.50;55.40;;;;;;4955172;29;20204;-74
2021/06/03 13:38:43;;;;;;;0.10;0.10;;;31.60;55.20;;;;;;4955536;29;20283;-74
2021/06/03 13:41:13;;;;;;;0.10;0.10;;;31.30;56.00;;;;;;4955646;29;20225;-74
2021/06/03 13:43:41;;;;;;;0.10;0.10;;;31.30;57.20;;;;;;4955912;29;20201;-75
2021/06/03 13:46:12;;;;;;;0.10;0.10;;;31.20;53.50;;;;;;4957031;29;20202;-75
2021/06/03 13:48:41;;;;;;;0.10;0.10;;;30.80;52.70;;;;;;4947356;29;20730;-74
2021/06/03 13:51:14;;;;;;;0.10;0.10;;;30.30;54.40;;;;;;4915301;29;20312;-74
2021/06/03 13:53:43;;;;;;;0.10;0.10;;;30.40;57.80;;;;;;4913436;29;20313;-74
2021/06/03 13:56:13;;;;;;;0.10;0.10;;;30.20;54.60;;;;;;4934553;29;20205;-75
2021/06/03 13:58:43;;;;;;;0.00;0.00;;;30.00;57.10;;;;;;4937993;29;20253;-74
2021/06/03 14:01:15;;;;;;;0.10;0.10;;;29.90;55.00;;;;;;4935187;29;20222;-74
2021/06/03 14:03:45;;;;;;;0.10;0.10;;;29.60;55.00;;;;;;4936042;29;20206;-74
2021/06/03 14:06:14;;;;;;;0.10;0.10;;;29.40;55.70;;;;;;4936591;29;20205;-76
2021/06/03 14:08:44;;;;;;;0.10;0.10;;;29.40;54.80;;;;;;4937055;29;20210;-75
2021/06/03 14:11:30;;;;;;;0.10;0.10;;;29.40;55.20;;;;;;4948160;29;20237;-82
2021/06/03 14:14:23;;;;;;;0.10;0.10;;;29.20;53.50;;;;;;4932119;29;20277;-75
2021/06/03 14:16:58;;;;;;;0.10;0.10;;;29.20;55.30;;;;;;4937591;29;20268;-75
2021/06/03 14:19:30;;;;;;;0.10;0.10;;;29.20;58.80;;;;;;4937683;29;20237;-74
2021/06/03 14:22:06;;;;;;;0.10;0.10;;;29.30;57.80;;;;;;4935365;29;20281;-74
2021/06/03 14:24:43;;;;;;;0.10;0.10;;;29.50;56.30;;;;;;4936359;29;20206;-75
2021/06/03 14:27:36;;;;;;;0.10;0.10;;;29.40;59.00;;;;;;4905965;29;20213;-77
2021/06/03 14:30:13;;;;;;;0.10;0.10;;;29.30;55.50;;;;;;4936501;29;20575;-75
2021/06/03 14:32:50;;;;;;;0.10;0.10;;;29.20;57.40;;;;;;4937226;29;20210;-77
2021/06/03 14:35:21;;;;;;;0.10;0.10;;;29.00;56.50;;;;;;4936650;29;20280;-74
2021/06/03 14:37:52;;;;;;;0.10;0.10;;;28.90;59.40;;;;;;4934983;29;20214;-77
2021/06/03 14:40:22;;;;;;;0.10;0.10;;;29.00;68.50;;;;;;4935915;29;20238;-74
2021/06/03 14:42:51;;;;;;;0.10;0.10;;;29.00;59.50;;;;;;4936273;29;20212;-75
2021/06/03 14:45:26;;;;;;;0.10;0.10;;;28.80;57.70;;;;;;4935534;29;20257;-76
2021/06/03 14:47:56;;;;;;;0.10;0.10;;;28.80;57.90;;;;;;4936025;29;20257;-78
2021/06/03 14:50:27;;;;;;;0.10;0.10;;;28.80;66.70;;;;;;4935209;29;20261;-75
2021/06/03 14:52:55;;;;;;;0.10;0.10;;;28.80;57.70;;;;;;4935183;29;20802;-76
2021/06/03 14:55:27;;;;;;;0.10;0.10;;;28.90;57.90;;;;;;4935626;29;20246;-77
2021/06/03 14:57:55;;;;;;;0.10;0.10;;;29.00;57.20;;;;;;4936656;29;20206;-76
2021/06/03 15:00:29;;;;;;;0.10;0.10;;;29.00;68.10;;;;;;4938213;29;20206;-78
2021/06/03 15:02:59;;;;;;;0.10;0.10;;;28.90;59.60;;;;;;4937838;29;20209;-77
2021/06/03 15:05:28;;;;;;;0.10;0.10;;;29.00;59.00;;;;;;4935670;29;20205;-76
2021/06/03 15:07:57;;;;;;;0.10;0.10;;;28.70;56.40;;;;;;4935195;29;20261;-76
2021/06/03 15:10:28;;;;;;;0.10;0.10;;;28.70;66.50;;;;;;4935035;29;20206;-76
2021/06/03 15:12:56;;;;;;;0.10;0.10;;;28.80;57.70;;;;;;4934832;29;20624;-76
2021/06/03 15:15:29;;;;;;;0.10;0.10;;;28.80;56.00;;;;;;4935203;29;20301;-74
2021/06/03 15:17:56;;;;;;;0.10;0.10;;;28.90;55.60;;;;;;4938986;29;20202;-74
2021/06/03 15:20:28;;;;;;;0.10;0.10;;;28.70;61.30;;;;;;4938417;29;20298;-73
2021/06/03 15:22:59;;;;;;;0.10;0.10;;;28.80;53.90;;;;;;4940264;29;20218;-73
2021/06/03 15:25:28;;;;;;;0.10;0.10;;;28.60;55.60;;;;;;4940546;29;20209;-76
2021/06/03 15:28:02;;;;;;;0.10;0.10;;;28.60;57.30;;;;;;4936473;29;20205;-76
2021/06/03 15:30:36;;;;;;;0.10;0.10;;;28.50;55.10;;;;;;4916416;29;20225;-76
2021/06/03 15:33:05;;;;;;;0.10;0.10;;;28.50;57.90;;;;;;4913941;29;20213;-76
2021/06/03 15:35:37;;;;;;;0.10;0.10;;;28.40;57.50;;;;;;4919586;29;20555;-73
2021/06/03 15:38:07;;;;;;;0.10;0.10;;;28.40;57.00;;;;;;4938413;29;20206;-70
2021/06/03 15:40:36;;;;;;;0.10;0.10;;;28.10;57.20;;;;;;4938685;29;20784;-71
2021/06/03 15:43:04;;;;;;;0.10;0.10;;;28.00;57.50;;;;;;4938616;29;20674;-71
2021/06/03 15:45:32;;;;;;;0.10;0.10;;;28.00;58.20;;;;;;4937849;29;20202;-69
2021/06/03 15:47:59;;;;;;;0.10;0.10;;;28.00;56.50;;;;;;4937927;29;20269;-69
2021/06/03 15:50:29;;;;;;;0.10;0.10;;;27.80;70.90;;;;;;4938537;29;20210;-72
2021/06/03 15:52:58;;;;;;;0.10;0.10;;;27.60;58.30;;;;;;4938168;29;20667;-71
2021/06/03 15:55:27;;;;;;;0.10;0.10;;;27.70;58.20;;;;;;4937423;29;20253;-71
2021/06/03 15:57:54;;;;;;;0.10;0.10;;;27.60;58.20;;;;;;4937370;29;20202;-72
2021/06/03 16:00:25;;;;;;;0.10;0.10;;;27.80;71.40;;;;;;4937306;29;20214;-72
2021/06/03 16:02:52;;;;;;;0.10;0.10;;;27.80;60.00;;;;;;4937549;29;20691;-72
2021/06/03 16:05:20;;;;;;;0.20;0.20;;;27.80;57.80;;;;;;4937404;29;20214;-71
2021/06/03 16:07:48;;;;;;;0.10;0.10;;;27.90;55.90;;;;;;4937460;29;20210;-72
2021/06/03 16:10:17;;;;;;;0.10;0.10;;;28.10;68.80;;;;;;4937252;29;20238;-76
2021/06/03 16:12:45;;;;;;;0.10;0.10;;;28.10;57.00;;;;;;4937273;29;20214;-75
2021/06/03 16:15:16;;;;;;;0.10;0.10;;;28.00;56.30;;;;;;4937288;29;20281;-74
2021/06/03 16:17:44;;;;;;;0.10;0.10;;;28.00;57.20;;;;;;4937398;29;20202;-74
2021/06/03 16:20:13;;;;;;;0.10;0.10;;;28.20;57.50;;;;;;4936962;29;20210;-75
2021/06/03 16:22:42;;;;;;;0.10;0.10;;;28.00;57.00;;;;;;4937080;29;20274;-74
2021/06/03 16:25:12;;;;;;;0.10;0.10;;;28.00;56.30;;;;;;4937806;23;20714;-72
2021/06/03 16:27:43;;;;;;;0.10;0.10;;;27.90;58.00;;;;;;4917650;29;20254;-73
2021/06/03 16:30:18;;;;;;;0.10;0.10;;;27.80;56.80;;;;;;4918014;29;20624;-74
2021/06/03 16:32:47;;;;;;;0.10;0.10;;;27.80;55.40;;;;;;4917990;29;20261;-73
2021/06/03 16:35:15;;;;;;;0.13;0.13;;;27.80;56.30;;;;;;4917326;29;20234;-74
2021/06/03 16:37:42;;;;;;;0.10;0.10;;;28.10;54.90;;;;;;4917844;29;20612;-75
2021/06/03 16:40:10;;;;;;;0.10;0.10;;;28.20;55.30;;;;;;4917880;29;20210;-74
2021/06/03 16:42:38;;;;;;;0.10;0.10;;;28.60;57.30;;;;;;4918046;29;20258;-76
2021/06/03 16:45:10;;;;;;;0.10;0.10;;;29.10;54.90;;;;;;4918262;29;20227;-78
2021/06/03 16:47:37;;;;;;;0.10;0.10;;;29.60;56.20;;;;;;4917736;29;20270;-74
2021/06/03 16:50:13;;;;;;;0.10;0.10;;;29.70;52.50;;;;;;4914655;29;20242;-74
2021/06/03 16:52:41;;;;;;;0.10;0.10;;;29.90;55.40;;;;;;4908987;29;20242;-77
2021/06/03 16:55:10;;;;;;;0.10;0.10;;;29.90;53.40;;;;;;4901435;29;20599;-77
2021/06/03 16:57:38;;;;;;;0.10;0.10;;;29.40;55.20;;;;;;4900302;29;20240;-77
2021/06/03 17:00:10;;;;;;;0.68;0.68;;;29.50;55.20;;;;;;4899795;29;20258;-76
2021/06/03 17:02:37;;;;;;;2.28;2.28;;;29.40;55.50;;;;;;4905521;29;20286;-74
2021/06/03 17:05:06;;;;;;;2.90;2.80;;;30.20;51.80;;;;;;4914782;29;20226;-78
2021/06/03 17:07:34;;;;;;;1.60;1.60;;;31.20;54.90;;;;;;4919912;29;20213;-77
2021/06/03 17:10:01;;;;;;;1.40;1.40;;;32.00;51.90;;;;;;4918180;29;20278;-77
2021/06/03 17:12:29;;;;;;;1.20;1.20;;;32.50;49.30;;;;;;4919743;29;20243;-77
2021/06/03 17:14:56;;;;;;;0.20;0.20;;;33.00;47.60;;;;;;4918626;29;20312;-76
2021/06/03 17:17:25;;;;;;;0.40;0.40;;;33.50;48.00;;;;;;4918482;29;20686;-78